Date,TemperatureHighF,TemperatureAvgF,TemperatureLowF,DewpointHighF,DewpointAvgF,DewpointLowF,HumidityHigh,HumidityAvg,HumidityLow,PressureMaxIn,PressureMinIn,WindSpeedMaxMPH,WindSpeedAvgMPH,GustSpeedMaxMPH,PrecipitationSumIn
2013-6-1,79.3,69.0,57.6,67.7,60.7,55.0,96,76,48,29.70,29.60,5,2,9,0.23
2013-6-2,63.5,55.0,44.4,58.0,45.4,40.1,93,71,50,30.02,29.70,6,3,10,0.00
2013-6-3,71.0,56.5,38.8,50.0,43.7,37.8,97,67,35,30.10,30.00,3,0,5,0.00
2013-6-4,68.9,59.9,50.7,55.8,50.8,45.7,93,73,48,30.16,30.06,2,0,4,0.26
2013-6-5,64.1,55.7,48.9,59.0,52.7,47.5,96,90,79,30.12,29.93,1,0,4,0.17
2013-6-6,61.1,56.1,51.3,56.1,52.7,49.9,95,88,81,29.97,29.92,2,0,6,0.17
2013-6-7,74.0,60.6,52.5,56.4,51.5,47.2,90,74,45,30.00,29.91,3,1,5,0.00
2013-6-8,75.3,63.4,53.6,54.2,51.1,46.2,93,67,38,29.99,29.92,2,0,4,0.00
2013-6-9,78.9,65.7,56.3,66.5,57.7,50.0,95,76,50,29.99,29.78,4,0,6,0.50
2013-6-10,80.8,69.9,58.3,66.3,62.7,57.2,97,80,58,29.85,29.77,3,1,5,0.00
2013-6-11,83.6,71.6,56.8,68.6,63.5,55.7,96,77,54,29.91,29.78,3,0,5,0.00
2013-6-12,76.4,68.8,60.8,70.4,65.4,58.8,95,89,78,29.90,29.58,6,1,8,1.24
2013-6-13,78.7,68.2,55.8,61.4,57.9,54.4,96,72,46,30.05,29.76,5,2,7,0.00
2013-6-14,79.1,66.8,52.4,61.0,56.8,51.3,97,72,48,30.15,29.97,3,0,5,0.00
2013-6-15,83.7,70.0,58.1,69.8,63.0,54.7,94,80,58,30.04,29.80,5,1,10,0.46
2013-6-16,84.3,73.2,59.9,67.6,59.3,51.8,96,67,34,29.90,29.84,4,1,11,0.01
2013-6-17,85.2,72.2,59.8,64.7,58.9,53.8,90,65,38,29.96,29.86,7,1,8,0.01
2013-6-18,74.5,63.5,52.6,59.0,53.3,48.0,89,71,45,30.08,29.95,4,2,8,0.00
2013-6-19,80.8,65.1,46.3,57.2,50.9,43.9,95,64,38,30.14,30.04,2,0,4,0.00
2013-6-20,88.0,74.5,56.7,64.9,56.8,48.1,82,56,34,30.12,30.01,3,1,6,0.00
2013-6-21,78.4,70.8,65.0,68.5,65.2,63.3,95,83,67,30.08,29.80,7,2,14,1.35
2013-6-23,75.3,73.4,72.2,68.0,67.7,67.4,86,83,77,29.91,29.89,2,1,2,0.26
2013-6-24,82.0,72.9,67.9,70.1,67.1,65.4,93,83,64,29.98,29.79,5,1,9,0.01
2013-6-25,83.9,73.0,65.4,75.0,69.1,63.9,96,88,72,29.90,29.75,4,1,7,0.84
2013-6-26,84.4,75.2,67.0,72.4,69.3,64.4,96,83,62,29.77,29.67,4,1,8,0.41
2013-6-27,87.0,77.4,68.3,73.4,67.7,59.2,97,74,48,29.77,29.67,5,1,9,0.00
2013-6-28,76.4,69.2,63.4,66.3,62.1,57.9,94,79,59,29.72,29.62,4,1,7,0.05
2013-6-29,71.4,66.2,63.2,64.2,61.7,57.7,95,86,71,29.83,29.62,5,2,11,0.31
2013-6-30,78.6,67.1,55.5,60.1,54.3,49.0,93,66,38,30.03,29.83,5,2,11,0.00